Time;durP1;ratioP1;P1;durP2;ratioP2;P2;SDS_P1;SDS_P2;PMS_P1;PMS_P2;Temp;Humidity;BMP_temperature;BMP_pressure;BME280_temperature;BME280_humidity;BME280_pressure;Samples;Min_cycle;Max_cycle;Signal;HPM_P1;HPM_P2
2023/04/27 00:00:13;;;;;;;19.80;10.30;;;;;;;3.69;61.27;100105.70;103165;1261;108073;-66
2023/04/27 00:02:56;;;;;;;23.70;9.40;;;;;;;3.66;61.25;100106.77;103399;1256;99140;-66
2023/04/27 00:05:21;;;;;;;19.20;9.70;;;;;;;3.63;61.38;100105.73;103172;1256;138663;-66
2023/04/27 00:07:44;;;;;;;19.20;9.80;;;;;;;3.61;61.59;100106.96;103445;1260;107958;-65
2023/04/27 00:10:10;;;;;;;20.20;10.00;;;;;;;3.60;61.61;100107.48;103008;1256;139043;-66
2023/04/27 00:12:33;;;;;;;22.60;9.40;;;;;;;3.59;61.70;100110.92;103617;1260;107514;-65
2023/04/27 00:14:57;;;;;;;19.50;9.90;;;;;;;3.57;61.85;100106.96;103127;1261;99059;-66
2023/04/27 00:17:21;;;;;;;21.10;10.10;;;;;;;3.56;61.86;100111.45;103016;1256;138473;-66
2023/04/27 00:19:46;;;;;;;21.30;10.10;;;;;;;3.55;61.80;100110.92;103337;1256;107603;-66
2023/04/27 00:22:15;;;;;;;21.10;9.60;;;;;;;3.54;61.91;100108.70;103055;1256;139043;-66
2023/04/27 00:24:40;;;;;;;20.40;10.10;;;;;;;3.52;62.08;100107.17;103059;1256;107413;-66
2023/04/27 00:27:04;;;;;;;18.60;10.50;;;;;;;3.48;62.09;100106.00;103584;1256;99805;-66
2023/04/27 00:29:28;;;;;;;19.50;9.90;;;;;;;3.47;62.32;100107.55;102856;1263;138811;-65
2023/04/27 00:31:51;;;;;;;23.40;11.40;;;;;;;3.46;62.25;100106.70;103116;1260;108890;-65
2023/04/27 00:34:15;;;;;;;16.80;10.00;;;;;;;3.45;62.40;100113.41;103151;1256;139005;-66
2023/04/27 00:36:44;;;;;;;19.50;9.30;;;;;;;3.44;62.42;100114.63;103151;1256;107367;-66
2023/04/27 00:39:09;;;;;;;22.50;10.10;;;;;;;3.43;62.59;100116.70;103437;1256;98093;-66
2023/04/27 00:41:38;;;;;;;16.40;9.00;;;;;;;3.42;62.54;100117.39;103402;1259;139483;-66
2023/04/27 00:44:02;;;;;;;17.90;9.80;;;;;;;3.39;62.63;100119.60;103000;1259;107961;-66
2023/04/27 00:46:26;;;;;;;19.50;10.50;;;;;;;3.38;62.75;100123.05;103275;1259;138721;-65
2023/04/27 00:48:50;;;;;;;22.40;10.30;;;;;;;3.36;62.85;100119.45;102974;1259;106985;-64
2023/04/27 00:51:34;;;;;;;20.20;9.90;;;;;;;3.34;62.98;100122.58;103256;1257;99112;-65
2023/04/27 00:53:59;;;;;;;22.00;10.20;;;;;;;3.33;62.99;100121.20;102892;1259;138382;-65
2023/04/27 00:56:23;;;;;;;18.50;10.80;;;;;;;3.30;63.15;100126.89;103063;1258;107316;-63
2023/04/27 00:58:50;;;;;;;19.50;10.30;;;;;;;3.26;63.11;100125.88;103113;1259;138909;-65
2023/04/27 01:01:15;;;;;;;23.40;10.30;;;;;;;3.24;63.36;100122.96;103623;1259;107032;-64
2023/04/27 01:03:39;;;;;;;19.20;10.60;;;;;;;3.21;63.32;100128.98;103293;1257;99185;-66
2023/04/27 01:06:03;;;;;;;20.00;11.00;;;;;;;3.20;63.48;100128.29;102954;1261;113505;-64
2023/04/27 01:08:27;;;;;;;22.10;11.30;;;;;;;3.19;63.63;100132.94;103465;1257;107843;-66
2023/04/27 01:10:51;;;;;;;31.10;11.30;;;;;;;3.19;63.70;100132.77;102895;1261;138813;-65
2023/04/27 01:13:18;;;;;;;21.00;11.30;;;;;;;3.19;63.79;100134.48;102933;1261;109320;-65
2023/04/27 01:15:42;;;;;;;19.40;10.60;;;;;;;3.17;63.73;100135.70;103470;1259;97192;-66
2023/04/27 01:18:06;;;;;;;20.80;11.30;;;;;;;3.15;63.78;100138.29;102351;1256;1002899;-65
2023/04/27 01:20:30;;;;;;;22.10;11.20;;;;;;;3.12;63.65;100138.30;103220;1256;108418;-64
2023/04/27 01:22:55;;;;;;;26.40;11.40;;;;;;;3.10;63.93;100136.25;103068;1260;138935;-65
2023/04/27 01:25:19;;;;;;;20.30;10.70;;;;;;;3.10;63.96;100134.36;103493;1260;107693;-65
2023/04/27 01:27:43;;;;;;;25.00;11.10;;;;;;;3.08;63.81;100137.13;102387;1256;1003671;-65
2023/04/27 01:30:08;;;;;;;20.60;11.90;;;;;;;3.06;64.07;100139.36;102976;1259;112880;-65
2023/04/27 01:32:32;;;;;;;19.30;11.90;;;;;;;3.03;64.13;100140.55;104280;1257;107696;-65
2023/04/27 01:34:57;;;;;;;23.40;11.70;;;;;;;3.00;64.15;100139.70;104206;1258;139377;-66
2023/04/27 01:37:22;;;;;;;21.40;12.20;;;;;;;3.00;64.37;100139.36;104266;1258;107958;-66
2023/04/27 01:39:46;;;;;;;21.30;11.60;;;;;;;3.01;64.41;100140.90;104155;1263;139113;-66
2023/04/27 01:42:10;;;;;;;22.00;12.20;;;;;;;3.01;64.24;100143.31;104303;1259;111255;-66
2023/04/27 01:44:35;;;;;;;25.50;13.00;;;;;;;3.01;64.39;100137.13;103806;1259;106786;-65
2023/04/27 01:46:59;;;;;;;23.50;12.40;;;;;;;3.00;64.42;100137.64;103574;1263;139647;-67
2023/04/27 01:49:23;;;;;;;27.10;12.50;;;;;;;3.01;64.57;100142.63;103949;1259;107926;-65
2023/04/27 01:51:47;;;;;;;21.20;11.10;;;;;;;3.02;64.44;100143.14;103295;1257;139290;-65
2023/04/27 01:54:11;;;;;;;23.10;12.40;;;;;;;3.03;64.57;100146.05;103027;1259;112912;-65
2023/04/27 01:56:35;;;;;;;24.50;11.20;;;;;;;3.03;64.64;100149.14;102882;1259;108122;-65
2023/04/27 01:58:58;;;;;;;23.10;12.00;;;;;;;3.04;64.61;100150.86;103321;1258;138931;-65
2023/04/27 02:01:22;;;;;;;26.90;13.50;;;;;;;3.02;64.53;100152.92;103939;1259;108699;-65
2023/04/27 02:03:48;;;;;;;25.10;13.10;;;;;;;3.01;64.56;100155.84;102786;1262;139330;-65
2023/04/27 02:06:12;;;;;;;25.90;13.40;;;;;;;2.98;64.58;100155.35;102984;1257;112815;-65
2023/04/27 02:08:36;;;;;;;24.90;13.70;;;;;;;2.93;64.65;100155.88;102920;1260;107679;-65
2023/04/27 02:10:59;;;;;;;24.80;14.10;;;;;;;2.89;64.78;100154.19;102844;1259;138887;-65
2023/04/27 02:13:23;;;;;;;24.90;13.70;;;;;;;2.84;65.02;100150.75;103027;1258;107691;-65
2023/04/27 02:15:46;;;;;;;24.20;13.40;;;;;;;2.82;64.93;100149.04;103049;1258;139048;-66
2023/04/27 02:18:11;;;;;;;25.10;14.10;;;;;;;2.80;65.08;100153.33;102991;1258;112392;-65
2023/04/27 02:20:34;;;;;;;25.30;14.10;;;;;;;2.77;65.21;100151.29;102990;1259;107539;-65
2023/04/27 02:22:58;;;;;;;26.90;14.50;;;;;;;2.75;65.34;100148.37;103502;1261;138994;-66
2023/04/27 02:25:22;;;;;;;29.20;14.50;;;;;;;2.72;65.48;100151.48;102999;1261;107273;-65
2023/04/27 02:27:46;;;;;;;30.30;15.40;;;;;;;2.70;65.53;100147.52;103153;1259;139309;-66
2023/04/27 02:30:12;;;;;;;32.50;17.10;;;;;;;2.69;65.47;100143.73;102931;1259;113848;-65
2023/04/27 02:32:36;;;;;;;27.10;14.70;;;;;;;2.68;65.64;100144.94;103319;1265;107374;-66
2023/04/27 02:35:00;;;;;;;25.70;15.00;;;;;;;2.66;65.59;100146.48;104171;1257;138826;-65
2023/04/27 02:37:24;;;;;;;31.60;15.30;;;;;;;2.65;65.68;100147.86;102985;1261;107862;-66
2023/04/27 02:39:48;;;;;;;32.50;15.40;;;;;;;2.64;65.76;100146.66;103766;1259;139204;-66
2023/04/27 02:42:12;;;;;;;29.40;16.60;;;;;;;2.62;65.83;100153.02;102950;1261;112860;-64
2023/04/27 02:44:35;;;;;;;23.20;13.70;;;;;;;2.62;65.96;100154.56;103325;1261;106908;-66
2023/04/27 02:46:59;;;;;;;24.40;14.20;;;;;;;2.61;65.97;100158.35;103103;1259;139271;-65
2023/04/27 02:49:23;;;;;;;26.20;14.40;;;;;;;2.59;66.01;100160.23;102989;1257;107634;-65
2023/04/27 02:51:46;;;;;;;26.70;13.80;;;;;;;2.56;66.09;100159.73;102146;1258;1002869;-65
2023/04/27 02:54:12;;;;;;;27.20;14.80;;;;;;;2.52;66.21;100158.88;103119;1260;113090;-66
2023/04/27 02:56:39;;;;;;;29.30;14.30;;;;;;;2.51;66.24;100159.55;103165;1259;108671;-63
2023/04/27 02:59:06;;;;;;;28.20;13.50;;;;;;;2.50;66.36;100161.09;102823;1263;138881;-66
2023/04/27 03:01:31;;;;;;;25.70;13.20;;;;;;;2.48;66.44;100162.63;103597;1257;108573;-65
2023/04/27 03:03:55;;;;;;;28.40;13.20;;;;;;;2.47;66.36;100161.61;102929;1261;139037;-65
2023/04/27 03:06:21;;;;;;;;;;;;;;;2.44;66.67;100162.13;103002;1259;112652;-65
2023/04/27 03:08:44;;;;;;;22.90;13.30;;;;;;;2.39;66.71;100164.04;103715;1261;107860;-65
2023/04/27 03:11:08;;;;;;;25.50;13.50;;;;;;;2.35;66.84;100162.15;103432;1257;139238;-65
2023/04/27 03:13:37;;;;;;;23.80;12.40;;;;;;;2.33;67.04;100162.98;103289;1259;109761;-66
2023/04/27 03:16:03;;;;;;;25.00;13.20;;;;;;;2.32;67.06;100167.62;102991;1259;139016;-66
2023/04/27 03:18:29;;;;;;;27.50;14.20;;;;;;;2.33;67.13;100164.70;103825;1261;111604;-65
2023/04/27 03:20:52;;;;;;;30.70;13.80;;;;;;;2.34;67.12;100166.09;102923;1261;108288;-65
2023/04/27 03:23:37;;;;;;;27.80;14.80;;;;;;;2.35;67.23;100166.45;103739;1260;138971;-66
2023/04/27 03:26:14;;;;;;;24.90;12.60;;;;;;;2.39;67.27;100165.40;103275;1257;107486;-66
2023/04/27 03:28:38;;;;;;;23.60;13.60;;;;;;;2.42;67.20;100166.08;102888;1260;139203;-66
2023/04/27 03:31:06;;;;;;;28.50;13.20;;;;;;;2.46;67.07;100163.67;103274;1258;112611;-65
2023/04/27 03:33:29;;;;;;;23.70;13.00;;;;;;;2.48;67.19;100168.30;103645;1257;106325;-66
2023/04/27 03:35:56;;;;;;;27.20;13.80;;;;;;;2.50;67.06;100169.66;102974;1256;139218;-65
2023/04/27 03:38:20;;;;;;;23.00;13.30;;;;;;;2.53;67.06;100171.41;103227;1259;107663;-65
2023/04/27 03:40:45;;;;;;;;;;;;;;;2.55;67.16;100167.13;102990;1260;138894;-64
2023/04/27 03:43:09;;;;;;;25.90;12.70;;;;;;;2.53;67.29;100168.67;103687;1256;114736;-65
2023/04/27 03:45:33;;;;;;;31.80;13.80;;;;;;;2.53;67.29;100168.32;103808;1260;107458;-65
2023/04/27 03:47:56;;;;;;;23.20;12.60;;;;;;;2.57;67.18;100172.25;102954;1263;138894;-65
2023/04/27 03:50:23;;;;;;;22.60;13.30;;;;;;;2.60;67.15;100177.05;103391;1258;105989;-66
2023/04/27 03:52:46;;;;;;;22.50;13.70;;;;;;;2.64;67.17;100185.45;103188;1263;139408;-65
2023/04/27 03:55:11;;;;;;;26.50;12.60;;;;;;;2.65;67.02;100187.34;103071;1257;112121;-66
2023/04/27 03:57:36;;;;;;;27.60;12.90;;;;;;;2.65;66.91;100187.86;103002;1261;107327;-66
2023/04/27 03:59:59;;;;;;;24.30;13.30;;;;;;;2.67;67.10;100197.12;103636;1260;139326;-66
2023/04/27 04:02:23;;;;;;;24.30;13.20;;;;;;;2.70;67.13;100200.91;102951;1261;107887;-65
2023/04/27 04:04:47;;;;;;;24.00;12.60;;;;;;;2.74;67.12;100198.85;103377;1260;139000;-66
2023/04/27 04:07:10;;;;;;;24.70;13.20;;;;;;;2.76;66.97;100202.62;103971;1260;111275;-66
2023/04/27 04:09:35;;;;;;;22.30;12.80;;;;;;;2.78;67.01;100204.16;103026;1257;108241;-65
2023/04/27 04:11:59;;;;;;;22.40;12.60;;;;;;;2.80;66.99;100205.53;103216;1257;138520;-66
2023/04/27 04:14:22;;;;;;;21.50;12.30;;;;;;;2.83;66.99;100205.86;103092;1261;109522;-65
2023/04/27 04:16:46;;;;;;;23.60;12.00;;;;;;;2.89;66.95;100204.33;103369;1258;138877;-64
2023/04/27 04:19:09;;;;;;;21.90;12.30;;;;;;;2.94;66.84;100210.15;102967;1261;112023;-65
2023/04/27 04:21:33;;;;;;;27.00;12.50;;;;;;;2.99;66.83;100212.02;103320;1262;107654;-66
2023/04/27 04:23:56;;;;;;;22.60;11.90;;;;;;;3.06;66.73;100206.69;103085;1258;139038;-65
2023/04/27 04:26:22;;;;;;;19.80;11.20;;;;;;;3.14;66.60;100209.94;103460;1257;108433;-65
2023/04/27 04:28:45;;;;;;;26.70;12.20;;;;;;;3.25;66.46;100208.18;102968;1262;138817;-65
2023/04/27 04:31:09;;;;;;;24.40;13.20;;;;;;;3.37;66.53;100213.46;103575;1263;112906;-66
2023/04/27 04:33:33;;;;;;;22.50;11.60;;;;;;;3.50;66.32;100208.96;102965;1263;107285;-65
2023/04/27 04:35:57;;;;;;;23.40;12.20;;;;;;;3.63;66.02;100208.03;102840;1261;138713;-66
2023/04/27 04:38:22;;;;;;;25.30;12.00;;;;;;;3.86;66.02;100212.74;103154;1262;108223;-69
2023/04/27 04:40:46;;;;;;;22.40;10.40;;;;;;;4.59;65.95;100205.50;103327;1258;138851;-70
2023/04/27 04:43:11;;;;;;;17.50;9.80;;;;;;;5.23;64.93;100209.19;102997;1258;113138;-69
2023/04/27 04:45:34;;;;;;;19.00;10.30;;;;;;;5.98;64.29;100207.91;103238;1258;107756;-70
2023/04/27 04:48:00;;;;;;;16.10;9.50;;;;;;;7.61;63.02;100202.63;102973;1265;139005;-69
2023/04/27 04:50:26;;;;;;;13.80;8.90;;;;;;;9.52;60.38;100202.65;103132;1259;105731;-69
2023/04/27 04:52:49;;;;;;;16.20;8.80;;;;;;;11.22;57.49;100194.63;102867;1263;138465;-69
2023/04/27 04:55:14;;;;;;;16.20;9.50;;;;;;;12.73;54.52;100188.98;103051;1260;112640;-70
2023/04/27 04:57:37;;;;;;;16.40;8.00;;;;;;;14.01;51.82;100188.15;102941;1257;108555;-71
2023/04/27 05:00:05;;;;;;;16.60;8.60;;;;;;;15.30;49.32;100184.02;103065;1260;138188;-70
2023/04/27 05:02:29;;;;;;;16.40;8.20;;;;;;;16.29;46.60;100183.85;103079;1263;107892;-70
2023/04/27 05:04:55;;;;;;;17.40;8.30;;;;;;;17.20;44.83;100184.84;103004;1258;138432;-68
2023/04/27 05:07:19;;;;;;;14.10;8.80;;;;;;;18.09;43.03;100182.18;103435;1257;112419;-71
2023/04/27 05:09:47;;;;;;;14.60;7.50;;;;;;;18.97;41.62;100183.38;102946;1260;138503;-71
2023/04/27 05:12:11;;;;;;;14.90;7.80;;;;;;;19.78;39.78;100184.66;103233;1256;97332;-71
2023/04/27 05:14:34;;;;;;;16.90;7.90;;;;;;;20.37;38.43;100185.86;103373;1257;107697;-72
2023/04/27 05:16:58;;;;;;;16.40;7.60;;;;;;;21.02;37.13;100192.62;103894;1257;139466;-72
2023/04/27 05:19:22;;;;;;;15.20;7.60;;;;;;;21.62;36.29;100189.77;102831;1257;194571;-72
2023/04/27 05:21:45;;;;;;;16.00;7.70;;;;;;;22.14;34.88;100183.98;103008;1258;138477;-71
2023/04/27 05:24:08;;;;;;;14.60;7.70;;;;;;;22.87;34.52;100184.53;104189;1256;97254;-70
2023/04/27 05:26:32;;;;;;;12.90;8.00;;;;;;;23.48;33.15;100181.40;103194;1260;108870;-68
2023/04/27 05:28:55;;;;;;;12.90;7.70;;;;;;;23.98;32.11;100180.19;103042;1257;138455;-71
2023/04/27 05:31:19;;;;;;;15.10;8.00;;;;;;;24.63;31.94;100181.63;103320;1260;112299;-69
2023/04/27 05:33:42;;;;;;;14.40;7.80;;;;;;;25.49;31.00;100188.02;103200;1260;108225;-70
2023/04/27 05:36:07;;;;;;;11.10;7.70;;;;;;;26.11;30.02;100184.13;103514;1257;99026;-66
2023/04/27 05:38:32;;;;;;;13.80;8.20;;;;;;;26.24;28.60;100185.70;103697;1260;107627;-68
2023/04/27 05:40:56;;;;;;;16.80;7.50;;;;;;;26.40;28.29;100184.96;102924;1260;138434;-70
2023/04/27 05:43:19;;;;;;;11.50;7.80;;;;;;;26.61;27.84;100183.13;102974;1260;112269;-69
2023/04/27 05:45:43;;;;;;;12.90;8.00;;;;;;;26.64;27.35;100188.16;103008;1257;108226;-70
2023/04/27 05:48:06;;;;;;;15.30;7.60;;;;;;;26.57;26.74;100186.39;103451;1260;97553;-70
2023/04/27 05:50:30;;;;;;;13.30;7.50;;;;;;;26.89;26.91;100188.13;104390;1260;107735;-70
2023/04/27 05:52:54;;;;;;;14.70;7.90;;;;;;;27.51;26.01;100187.45;103180;1260;138300;-71
2023/04/27 05:55:17;;;;;;;15.90;7.60;;;;;;;27.64;25.04;100187.70;102979;1260;112470;-70
2023/04/27 05:57:40;;;;;;;24.90;8.20;;;;;;;27.97;25.20;100190.83;103020;1258;107705;-67
2023/04/27 06:00:09;;;;;;;13.70;7.60;;;;;;;28.28;24.72;100188.26;103578;1257;138581;-67
2023/04/27 06:02:35;;;;;;;15.10;7.20;;;;;;;28.39;24.20;100187.48;103884;1257;106958;-67
2023/04/27 06:04:59;;;;;;;15.40;8.40;;;;;;;28.52;23.93;100188.63;103487;1257;140488;-69
2023/04/27 06:07:23;;;;;;;13.10;8.10;;;;;;;28.84;23.79;100194.36;103594;1257;112760;-69
2023/04/27 06:09:46;;;;;;;15.00;7.90;;;;;;;29.39;23.61;100198.27;102787;1259;138516;-67
2023/04/27 06:12:10;;;;;;;12.70;7.50;;;;;;;29.64;22.81;100197.38;103445;1257;99154;-68
2023/04/27 06:14:35;;;;;;;11.60;7.80;;;;;;;29.76;22.55;100201.56;103514;1257;109169;-68
2023/04/27 06:16:58;;;;;;;14.80;7.80;;;;;;;29.86;22.27;100199.58;103670;1257;138946;-67
2023/04/27 06:19:22;;;;;;;14.40;7.60;;;;;;;30.18;22.44;100194.39;103789;1256;112306;-67
2023/04/27 06:21:45;;;;;;;13.60;7.40;;;;;;;30.46;21.83;100195.45;103530;1260;138411;-68
2023/04/27 06:24:09;;;;;;;12.20;7.70;;;;;;;30.77;21.77;100195.59;104334;1257;97288;-69
2023/04/27 06:26:32;;;;;;;11.80;7.70;;;;;;;31.16;21.68;100200.53;104418;1256;107530;-69
2023/04/27 06:28:56;;;;;;;12.50;7.20;;;;;;;31.44;21.23;100199.31;104317;1257;138436;-67
2023/04/27 06:31:19;;;;;;;13.50;7.30;;;;;;;31.61;20.64;100199.59;104453;1256;113046;-68
2023/04/27 06:33:43;;;;;;;13.80;7.50;;;;;;;31.40;20.27;100200.08;104290;1256;107886;-69
2023/04/27 06:36:07;;;;;;;11.40;6.60;;;;;;;31.41;20.59;100199.17;104409;1257;97154;-68
2023/04/27 06:38:30;;;;;;;13.40;7.20;;;;;;;31.52;20.20;100202.61;104211;1260;107630;-68
2023/04/27 06:40:54;;;;;;;12.10;7.30;;;;;;;31.40;20.01;100196.59;103203;1257;138694;-67
2023/04/27 06:43:18;;;;;;;13.30;7.40;;;;;;;31.51;20.06;100194.44;104086;1258;112542;-67
2023/04/27 06:45:42;;;;;;;11.40;7.30;;;;;;;31.75;19.78;100200.72;103921;1257;108401;-67
2023/04/27 06:48:06;;;;;;;13.50;6.50;;;;;;;31.88;19.73;100202.25;103006;1258;99166;-66
2023/04/27 06:50:30;;;;;;;12.60;6.80;;;;;;;32.12;19.30;100203.38;103455;1257;100846;-67
2023/04/27 06:52:53;;;;;;;13.90;7.10;;;;;;;32.19;19.23;100201.64;103405;1257;138593;-68
2023/04/27 06:55:17;;;;;;;11.70;6.90;;;;;;;32.15;18.68;100208.06;102924;1258;104908;-67
2023/04/27 06:57:41;;;;;;;15.00;6.70;;;;;;;32.03;18.78;100208.84;102927;1257;100025;-67
2023/04/27 07:00:06;;;;;;;10.20;6.80;;;;;;;32.09;19.36;100213.83;103523;1260;138273;-68
2023/04/27 07:02:30;;;;;;;13.60;7.50;;;;;;;32.35;19.22;100209.92;104122;1257;108603;-67
2023/04/27 07:04:54;;;;;;;14.70;7.50;;;;;;;32.30;19.11;100214.82;102927;1260;138355;-68
2023/04/27 07:07:17;;;;;;;10.90;7.00;;;;;;;32.05;18.79;100215.05;103639;1257;113404;-68
2023/04/27 07:09:41;;;;;;;12.90;7.50;;;;;;;31.83;18.95;100211.71;103985;1257;108179;-69
2023/04/27 07:12:05;;;;;;;12.80;7.10;;;;;;;31.44;18.29;100206.45;103242;1256;138243;-69
2023/04/27 07:14:29;;;;;;;11.50;6.90;;;;;;;31.29;19.09;100214.22;103966;1260;107386;-67
2023/04/27 07:16:52;;;;;;;11.50;7.10;;;;;;;31.28;18.81;100214.45;104127;1256;139473;-66
2023/04/27 07:19:16;;;;;;;11.70;7.00;;;;;;;31.10;18.71;100214.98;103325;1260;112784;-67
2023/04/27 07:21:40;;;;;;;12.00;7.50;;;;;;;30.92;18.50;100213.90;103270;1259;107634;-67
2023/04/27 07:24:04;;;;;;;9.10;6.30;;;;;;;30.70;18.79;100219.64;103415;1257;138263;-67
2023/04/27 07:26:27;;;;;;;9.50;6.70;;;;;;;31.00;19.04;100219.48;104373;1256;107314;-68
2023/04/27 07:28:51;;;;;;;11.10;6.40;;;;;;;31.26;18.46;100218.91;103995;1257;139371;-68
2023/04/27 07:31:14;;;;;;;10.00;6.40;;;;;;;31.19;18.59;100222.20;104016;1256;111946;-68
2023/04/27 07:33:38;;;;;;;10.90;6.20;;;;;;;31.15;18.39;100224.71;102886;1256;110079;-68
2023/04/27 07:36:03;;;;;;;12.00;6.00;;;;;;;30.94;18.31;100224.48;103552;1256;138606;-68
2023/04/27 07:38:27;;;;;;;10.40;6.00;;;;;;;30.87;18.49;100226.73;103996;1257;108423;-68
2023/04/27 07:40:51;;;;;;;10.30;6.10;;;;;;;31.06;18.33;100224.31;102837;1256;138575;-67
2023/04/27 07:43:15;;;;;;;11.90;6.00;;;;;;;30.89;17.87;100223.68;102991;1256;113948;-69
2023/04/27 07:45:40;;;;;;;11.00;5.50;;;;;;;30.93;18.20;100225.14;104050;1256;108128;-69
2023/04/27 07:48:04;;;;;;;11.40;5.50;;;;;;;31.09;17.96;100225.44;103950;1256;138331;-69
2023/04/27 07:50:29;;;;;;;10.90;5.70;;;;;;;31.24;17.68;100227.04;103130;1257;108276;-69
2023/04/27 07:52:53;;;;;;;10.70;5.40;;;;;;;30.97;17.75;100225.88;102898;1260;138533;-70
2023/04/27 07:55:17;;;;;;;8.60;4.70;;;;;;;30.94;18.00;100222.30;104384;1256;113264;-70
2023/04/27 07:57:40;;;;;;;12.70;5.10;;;;;;;31.03;17.60;100223.63;103841;1256;107591;-70
2023/04/27 08:00:07;;;;;;;8.80;5.10;;;;;;;30.99;17.85;100229.21;103673;1260;139328;-70
2023/04/27 08:02:35;;;;;;;9.50;5.80;;;;;;;30.95;17.68;100229.06;102968;1256;107261;-68
2023/04/27 08:05:01;;;;;;;11.20;5.30;;;;;;;30.86;18.07;100235.82;103625;1256;138136;-70
2023/04/27 08:07:25;;;;;;;9.80;5.70;;;;;;;30.77;17.99;100232.98;103208;1257;112100;-70
2023/04/27 08:09:51;;;;;;;10.70;6.00;;;;;;;30.64;18.13;100236.23;102718;1256;138299;-69
2023/04/27 08:12:14;;;;;;;7.10;5.60;;;;;;;30.50;17.56;100234.48;102884;1260;99223;-69
2023/04/27 08:14:38;;;;;;;8.10;5.10;;;;;;;30.09;18.01;100237.95;102792;1262;110015;-69
2023/04/27 08:17:01;;;;;;;11.20;5.90;;;;;;;30.09;18.26;100237.23;102733;1256;138167;-69
2023/04/27 08:19:25;;;;;;;9.10;5.50;;;;;;;29.84;18.27;100238.48;103803;1256;112377;-69
2023/04/27 08:21:49;;;;;;;8.80;6.10;;;;;;;29.63;18.21;100236.82;102858;1260;139043;-69
2023/04/27 08:24:12;;;;;;;11.30;5.80;;;;;;;29.54;18.34;100232.17;103640;1256;97762;-69
2023/04/27 08:26:36;;;;;;;9.90;5.40;;;;;;;29.47;18.59;100235.33;104133;1256;107885;-70
2023/04/27 08:29:01;;;;;;;9.50;6.00;;;;;;;29.35;18.51;100237.85;103330;1256;138337;-70
2023/04/27 08:31:39;;;;;;;10.90;5.60;;;;;;;28.84;18.63;100232.95;103007;1257;113149;-71
2023/04/27 08:34:03;;;;;;;10.70;5.80;;;;;;;27.48;18.99;100236.83;102972;1256;138492;-70
2023/04/27 08:36:27;;;;;;;10.50;6.30;;;;;;;26.14;19.64;100233.71;103666;1260;97344;-70
2023/04/27 08:38:51;;;;;;;7.90;5.80;;;;;;;25.98;20.50;100239.36;103541;1256;107253;-71
2023/04/27 08:41:20;;;;;;;7.90;5.00;;;;;;;26.25;20.56;100235.87;103279;1257;138179;-72
2023/04/27 08:43:45;;;;;;;7.90;5.00;;;;;;;26.59;20.48;100231.41;103618;1258;111855;-73
2023/04/27 08:46:09;;;;;;;10.90;5.40;;;;;;;26.80;20.15;100227.13;103333;1257;138642;-71
2023/04/27 08:48:32;;;;;;;11.80;5.30;;;;;;;26.08;20.25;100230.67;103300;1257;99333;-72
2023/04/27 08:50:58;;;;;;;7.90;4.70;;;;;;;25.07;20.67;100231.40;102979;1256;108543;-71
2023/04/27 08:53:23;;;;;;;9.10;4.10;;;;;;;24.52;20.82;100225.64;102927;1256;138115;-70
2023/04/27 08:55:47;;;;;;;7.70;3.60;;;;;;;24.43;21.20;100226.14;103280;1256;111774;-70
2023/04/27 08:58:10;;;;;;;7.90;4.20;;;;;;;24.56;20.91;100223.88;102804;1256;138515;-71
2023/04/27 09:00:40;;;;;;;7.20;4.00;;;;;;;24.30;21.58;100229.79;103958;1256;99223;-71
2023/04/27 09:03:05;;;;;;;8.40;3.50;;;;;;;24.14;21.59;100228.30;103457;1256;108451;-70
2023/04/27 09:05:29;;;;;;;7.50;3.50;;;;;;;23.17;21.71;100232.48;102868;1260;138267;-69
2023/04/27 09:08:01;;;;;;;7.50;3.10;;;;;;;22.07;22.16;100238.40;103549;1256;111964;-69
2023/04/27 09:10:24;;;;;;;9.50;3.20;;;;;;;20.85;22.86;100245.81;103117;1257;138347;-72
2023/04/27 09:12:56;;;;;;;6.90;3.40;;;;;;;19.53;23.69;100251.11;102983;1260;99465;-71
2023/04/27 09:15:20;;;;;;;6.20;3.70;;;;;;;18.21;25.08;100260.56;102857;1256;107783;-70
2023/04/27 09:17:44;;;;;;;7.20;3.80;;;;;;;17.15;26.17;100264.23;103318;1257;138277;-68
2023/04/27 09:20:12;;;;;;;10.20;4.30;;;;;;;16.29;27.37;100272.13;103190;1256;113310;-70
2023/04/27 09:22:43;;;;;;;8.40;4.50;;;;;;;15.50;28.54;100270.96;103342;1259;138412;-69
2023/04/27 09:25:08;;;;;;;14.00;4.40;;;;;;;14.76;29.55;100278.00;103579;1256;97573;-67
2023/04/27 09:27:37;;;;;;;13.10;4.60;;;;;;;14.33;30.77;100274.09;103070;1256;106319;-67
2023/04/27 09:30:00;;;;;;;10.10;4.30;;;;;;;14.06;31.75;100280.77;102711;1260;138386;-67
2023/04/27 09:32:27;;;;;;;11.00;4.90;;;;;;;13.80;32.34;100279.52;104136;1256;112367;-68
2023/04/27 09:34:50;;;;;;;14.60;5.10;;;;;;;13.61;32.87;100274.60;103737;1256;138461;-69
2023/04/27 09:37:17;;;;;;;8.20;4.80;;;;;;;13.43;33.01;100277.14;103536;1256;98375;-68
2023/04/27 09:39:42;;;;;;;9.80;5.40;;;;;;;13.26;33.50;100275.92;102885;1256;107949;-70
2023/04/27 09:42:15;;;;;;;12.50;5.40;;;;;;;13.10;33.57;100272.57;104161;1256;99025;-68
2023/04/27 09:44:39;;;;;;;13.60;5.50;;;;;;;12.97;34.10;100271.40;103449;1256;112328;-69
2023/04/27 09:47:04;;;;;;;7.20;4.30;;;;;;;12.80;34.02;100276.30;104145;1258;138805;-68
2023/04/27 09:49:28;;;;;;;9.20;3.70;;;;;;;12.62;34.27;100280.17;103854;1256;99610;-68
2023/04/27 09:51:55;;;;;;;6.80;3.40;;;;;;;12.39;34.20;100276.36;104022;1256;138812;-68
2023/04/27 09:54:26;;;;;;;6.20;3.20;;;;;;;12.16;34.45;100277.60;103489;1256;99350;-68
2023/04/27 09:57:00;;;;;;;4.70;3.10;;;;;;;11.93;34.46;100282.96;103579;1256;112206;-69
2023/04/27 09:59:47;;;;;;;6.20;2.90;;;;;;;11.70;34.63;100283.10;103496;1256;138347;-67
2023/04/27 10:02:22;;;;;;;5.60;2.50;;;;;;;11.52;34.76;100280.27;102797;1256;1003095;-67
2023/04/27 10:05:16;;;;;;;4.00;2.60;;;;;;;11.40;34.82;100283.65;103346;1256;138479;-68
2023/04/27 10:07:40;;;;;;;4.50;2.50;;;;;;;11.26;35.04;100283.44;103511;1256;99311;-68
2023/04/27 10:10:06;;;;;;;7.20;2.90;;;;;;;11.20;35.27;100285.74;103462;1256;1003277;-69
2023/04/27 10:12:35;;;;;;;5.50;2.40;;;;;;;11.17;35.51;100289.69;103255;1256;107591;-68
2023/04/27 10:15:11;;;;;;;5.60;2.70;;;;;;;11.12;35.54;100289.15;103314;1256;99903;-68
2023/04/27 10:17:36;;;;;;;8.90;2.60;;;;;;;11.05;35.40;100289.02;102920;1256;138098;-73
2023/04/27 10:20:01;;;;;;;7.10;2.10;;;;;;;10.98;35.48;100286.84;103766;1260;97236;-71
2023/04/27 10:22:38;;;;;;;3.80;2.30;;;;;;;10.89;35.71;100286.08;102830;1256;138124;-70
2023/04/27 10:25:13;;;;;;;5.70;2.50;;;;;;;10.82;35.97;100290.48;103801;1256;107532;-71
2023/04/27 10:27:39;;;;;;;7.70;3.10;;;;;;;10.77;36.46;100293.60;104273;1256;97407;-72
2023/04/27 10:30:11;;;;;;;5.70;2.60;;;;;;;10.77;36.68;100289.61;102680;1256;1002279;-69
2023/04/27 10:32:34;;;;;;;7.00;3.10;;;;;;;10.73;37.04;100289.55;103680;1255;98059;-70
2023/04/27 10:35:06;;;;;;;7.20;3.20;;;;;;;10.72;37.30;100291.48;103181;1260;138035;-70
2023/04/27 10:37:40;;;;;;;5.50;3.00;;;;;;;10.71;37.52;100290.83;102957;1256;108119;-70
2023/04/27 10:40:09;;;;;;;7.90;3.30;;;;;;;10.73;37.65;100290.08;104088;1256;138414;-68
2023/04/27 10:42:33;;;;;;;9.90;3.90;;;;;;;10.81;37.94;100296.25;102928;1259;107206;-70
2023/04/27 10:44:58;;;;;;;5.70;4.10;;;;;;;11.00;38.26;100294.07;102932;1263;99183;-73
2023/04/27 10:47:43;;;;;;;9.50;4.00;;;;;;;11.25;38.40;100288.69;102779;1256;137941;-69
2023/04/27 10:50:13;;;;;;;7.60;3.70;;;;;;;11.58;38.26;100287.20;102982;1256;107637;-69
2023/04/27 10:52:41;;;;;;;6.70;4.30;;;;;;;11.85;38.06;100283.95;104012;1256;138177;-70
2023/04/27 10:55:16;;;;;;;8.90;3.90;;;;;;;12.03;37.90;100284.87;103033;1256;108923;-70